Lafayette, New Jersey
Current Conditions -  °F | °C
As of 1:53 PM on Friday 31 Oct 2014 (Local Time) from KFWN Reporting Station
Few Clouds Few Clouds  
Wind Chill: 50°   Ceiling: Unl
Heat Index: 50°   Visibility: 10mi
Dew Point: 33°   Wind: 8mph
Humidity: 52%   Direction: 60°ENE
Pressure: 29.94"   Gusts: NA
Location:  41.1°N, 74.69°W
Report Text: KFWN 311753Z AUTO 06007KT 10SM FEW055 10/01 A2994 RMK AO2 SLP141 T01000006 10106 21017 58020
Loading
Personal Weather Stations






























Interactive Weather Map
Tropical Storm Tracking
New forecast layout! Learn more

10-Day Weather Forecast

Advertisements
Track Severe Weather on mobile